createdAt,value
2018-02-09T00:00:06.631Z,79.88
2018-02-09T00:02:34.974Z,79.56
2018-02-09T00:05:02.869Z,79.51
2018-02-09T00:07:30.760Z,79.49
2018-02-09T00:09:59.075Z,79.55
2018-02-09T00:12:26.978Z,80.18
2018-02-09T00:14:54.757Z,80.62
2018-02-09T00:17:22.761Z,80.95
2018-02-09T00:19:51.502Z,81.63
2018-02-09T00:22:20.977Z,81.95
2018-02-09T00:24:48.726Z,82.11
2018-02-09T00:27:16.844Z,81.86
2018-02-09T00:29:44.712Z,81.53
2018-02-09T00:32:12.575Z,81.52
2018-02-09T00:34:40.666Z,81.20
2018-02-09T00:37:09.246Z,81.07
2018-02-09T00:39:36.978Z,80.93
2018-02-09T00:42:04.768Z,81.14
2018-02-09T00:44:32.622Z,81.27
2018-02-09T00:47:00.406Z,81.47
2018-02-09T00:49:28.143Z,82.03
2018-02-09T00:51:55.866Z,83.16
2018-02-09T00:54:23.595Z,83.72
2018-02-09T00:56:51.342Z,84.04
2018-02-09T00:59:19.126Z,84.53
2018-02-09T01:01:46.812Z,85.05
2018-02-09T01:04:14.531Z,84.95
2018-02-09T01:06:42.361Z,84.88
2018-02-09T01:09:10.065Z,84.83
2018-02-09T01:11:37.793Z,84.43
2018-02-09T01:14:05.509Z,84.64
2018-02-09T01:16:33.364Z,84.84
2018-02-09T01:19:01.163Z,84.33
2018-02-09T01:21:29.041Z,83.66
2018-02-09T01:23:56.966Z,83.29
2018-02-09T01:26:24.965Z,83.15
2018-02-09T01:28:52.934Z,82.96
2018-02-09T01:31:21.007Z,82.81
2018-02-09T01:33:48.721Z,82.35
2018-02-09T01:36:16.490Z,82.29
2018-02-09T01:38:44.171Z,82.15
2018-02-09T01:41:11.901Z,82.15
2018-02-09T01:43:39.612Z,82.11
2018-02-09T01:46:07.605Z,82.30
2018-02-09T01:48:35.326Z,82.52
2018-02-09T01:51:03.042Z,82.56
2018-02-09T01:53:30.714Z,82.85
2018-02-09T01:55:58.447Z,83.06
2018-02-09T01:58:26.135Z,83.09
2018-02-09T02:00:53.833Z,83.03
2018-02-09T02:03:21.517Z,83.17
2018-02-09T02:05:49.271Z,83.16
2018-02-09T02:08:16.960Z,83.18
2018-02-09T02:10:44.779Z,83.26
2018-02-09T02:13:12.469Z,83.30
2018-02-09T02:15:40.163Z,82.95
2018-02-09T02:18:07.876Z,82.71
2018-02-09T02:20:35.681Z,82.97
2018-02-09T02:23:03.362Z,83.22
2018-02-09T02:25:31.208Z,83.25
2018-02-09T02:27:58.903Z,83.08
2018-02-09T02:30:26.613Z,82.94
2018-02-09T02:32:54.363Z,83.07
2018-02-09T02:35:22.090Z,82.98
2018-02-09T02:37:49.815Z,83.25
2018-02-09T02:40:17.686Z,83.31
2018-02-09T02:42:45.468Z,83.57
2018-02-09T02:45:13.441Z,83.81
2018-02-09T02:47:41.114Z,83.49
2018-02-09T02:50:08.886Z,83.36
2018-02-09T02:52:36.569Z,83.10
2018-02-09T02:55:04.285Z,83.18
2018-02-09T02:57:31.961Z,83.40
2018-02-09T02:59:59.687Z,83.36
2018-02-09T03:02:27.376Z,83.63
2018-02-09T03:04:55.131Z,83.77
2018-02-09T03:07:22.823Z,83.89
2018-02-09T03:09:50.561Z,83.81
2018-02-09T03:12:18.336Z,83.97
2018-02-09T03:14:46.006Z,84.49
2018-02-09T03:17:13.714Z,84.70
2018-02-09T03:19:41.390Z,84.83
2018-02-09T03:22:09.125Z,85.07
2018-02-09T03:24:36.998Z,86.12
2018-02-09T03:27:04.710Z,86.45
2018-02-09T03:29:32.410Z,86.36
2018-02-09T03:32:00.110Z,86.01
2018-02-09T03:34:27.876Z,86.11
2018-02-09T03:36:55.603Z,86.39
2018-02-09T03:39:23.302Z,86.37
2018-02-09T03:41:50.984Z,86.43
2018-02-09T03:44:18.808Z,86.65
2018-02-09T03:46:46.482Z,86.71
2018-02-09T03:49:14.295Z,86.76
2018-02-09T03:51:41.991Z,86.85
2018-02-09T03:54:09.697Z,87.04
2018-02-09T03:56:37.379Z,86.84
2018-02-09T03:59:05.254Z,87.02
2018-02-09T04:01:32.938Z,87.37
2018-02-09T04:04:00.757Z,87.60
2018-02-09T04:06:28.466Z,87.52
2018-02-09T04:08:56.274Z,87.43
2018-02-09T04:11:24.070Z,87.14
2018-02-09T04:13:51.777Z,87.02
2018-02-09T04:16:19.632Z,87.20
2018-02-09T04:18:47.377Z,87.49
2018-02-09T04:21:15.054Z,87.48
2018-02-09T04:23:42.891Z,87.21
2018-02-09T04:26:10.627Z,87.48
2018-02-09T04:28:38.441Z,87.52
2018-02-09T04:31:06.209Z,87.31
2018-02-09T04:33:33.925Z,87.35
2018-02-09T04:36:01.630Z,87.31
2018-02-09T04:38:29.310Z,87.10
2018-02-09T04:40:57.052Z,86.80
2018-02-09T04:43:24.827Z,87.03
2018-02-09T04:45:52.553Z,87.28
2018-02-09T04:48:20.246Z,87.53
2018-02-09T04:50:48.048Z,87.72
2018-02-09T04:53:15.726Z,87.92
2018-02-09T04:55:43.558Z,87.68
2018-02-09T04:58:11.290Z,87.63
2018-02-09T05:00:38.987Z,87.62
2018-02-09T05:03:06.668Z,87.52
2018-02-09T05:05:35.322Z,87.52
2018-02-09T05:08:03.038Z,87.54
2018-02-09T05:10:30.789Z,87.29
2018-02-09T05:12:58.483Z,86.97
2018-02-09T05:15:26.311Z,86.45
2018-02-09T05:17:53.997Z,86.42
2018-02-09T05:20:21.771Z,86.44
2018-02-09T05:22:49.525Z,85.97
2018-02-09T05:25:17.251Z,86.11
2018-02-09T05:27:44.927Z,86.51
2018-02-09T05:30:12.763Z,86.60
2018-02-09T05:32:40.505Z,86.78
2018-02-09T05:35:08.383Z,86.20
2018-02-09T05:37:36.063Z,85.63
2018-02-09T05:40:03.767Z,85.49
2018-02-09T05:42:31.471Z,85.78
2018-02-09T05:44:59.195Z,85.87
2018-02-09T05:47:26.870Z,86.08
2018-02-09T05:49:54.593Z,86.61
2018-02-09T05:52:22.274Z,86.74
2018-02-09T05:54:49.969Z,86.67
2018-02-09T05:57:17.673Z,86.73
2018-02-09T05:59:45.418Z,86.44
2018-02-09T06:02:13.178Z,85.84
2018-02-09T06:04:40.982Z,85.93
2018-02-09T06:07:08.688Z,86.14
2018-02-09T06:09:36.406Z,86.34
2018-02-09T06:12:04.099Z,86.58
2018-02-09T06:14:31.810Z,86.71
2018-02-09T06:16:59.528Z,86.69
2018-02-09T06:19:27.243Z,86.47
2018-02-09T06:21:54.943Z,86.42
2018-02-09T06:24:22.613Z,86.50
2018-02-09T06:26:50.317Z,86.55
2018-02-09T06:29:18.085Z,86.77
2018-02-09T06:31:45.766Z,86.78
2018-02-09T06:34:13.474Z,86.77
2018-02-09T06:36:41.146Z,86.78
2018-02-09T06:39:08.906Z,86.68
2018-02-09T06:41:36.600Z,86.59
2018-02-09T06:44:04.281Z,86.41
2018-02-09T06:46:32.130Z,86.38
2018-02-09T06:48:59.795Z,86.04
2018-02-09T06:51:27.537Z,86.29
2018-02-09T06:53:55.232Z,86.47
2018-02-09T06:56:22.968Z,86.71
2018-02-09T06:58:50.655Z,86.87
2018-02-09T07:01:18.512Z,87.04
2018-02-09T07:03:46.201Z,86.96
2018-02-09T07:06:14.026Z,86.78
2018-02-09T07:08:41.810Z,86.62
2018-02-09T07:11:09.506Z,86.68
2018-02-09T07:13:37.232Z,87.00
2018-02-09T07:16:04.935Z,87.27
2018-02-09T07:18:32.720Z,87.21
2018-02-09T07:21:00.494Z,87.17
2018-02-09T07:23:28.188Z,87.19
2018-02-09T07:25:55.977Z,87.54
2018-02-09T07:28:23.664Z,87.54
2018-02-09T07:30:51.398Z,87.64
2018-02-09T07:33:19.065Z,87.55
2018-02-09T07:35:46.851Z,87.59
2018-02-09T07:38:14.534Z,87.42
2018-02-09T07:40:42.422Z,87.76
2018-02-09T07:43:10.099Z,87.87
2018-02-09T07:45:37.802Z,88.00
2018-02-09T07:48:05.504Z,88.14
2018-02-09T07:50:33.352Z,88.41
2018-02-09T07:53:01.028Z,88.33
2018-02-09T07:55:28.734Z,88.07
2018-02-09T07:57:56.415Z,87.75
2018-02-09T08:00:24.150Z,87.95
2018-02-09T08:02:51.982Z,87.82
2018-02-09T08:05:19.795Z,88.08
2018-02-09T08:07:47.589Z,87.87
2018-02-09T08:10:15.324Z,87.84
2018-02-09T08:12:43.008Z,87.85
2018-02-09T08:15:10.793Z,87.89
2018-02-09T08:17:38.479Z,88.14
2018-02-09T08:20:06.206Z,87.92
2018-02-09T08:22:33.923Z,87.79
2018-02-09T08:25:01.741Z,87.55
2018-02-09T08:27:29.574Z,87.39
2018-02-09T08:29:57.313Z,87.12
2018-02-09T08:32:25.006Z,86.75
2018-02-09T08:34:52.741Z,86.22
2018-02-09T08:37:20.483Z,85.64
2018-02-09T08:39:48.197Z,85.32
2018-02-09T08:42:15.967Z,85.44
2018-02-09T08:44:43.667Z,85.30
2018-02-09T08:47:11.354Z,85.08
2018-02-09T08:49:39.049Z,85.39
2018-02-09T08:52:06.823Z,85.35
2018-02-09T08:54:34.535Z,85.49
2018-02-09T08:57:02.211Z,85.53
2018-02-09T08:59:29.905Z,85.54
2018-02-09T09:01:57.579Z,85.51
2018-02-09T09:04:25.295Z,85.24
2018-02-09T09:06:52.982Z,85.40
2018-02-09T09:09:20.681Z,85.56
2018-02-09T09:11:48.355Z,85.53
2018-02-09T09:14:16.078Z,85.02
2018-02-09T09:16:43.742Z,84.59
2018-02-09T09:19:11.450Z,84.86
2018-02-09T09:21:39.134Z,84.36
2018-02-09T09:24:06.850Z,84.77
2018-02-09T09:26:34.533Z,84.42
2018-02-09T09:29:02.238Z,83.65
2018-02-09T09:31:30.004Z,83.44
2018-02-09T09:33:57.777Z,82.83
2018-02-09T09:36:25.504Z,83.19
2018-02-09T09:38:53.262Z,82.95
2018-02-09T09:41:20.945Z,82.24
2018-02-09T09:43:48.676Z,82.53
2018-02-09T09:46:16.407Z,83.09
2018-02-09T09:48:44.175Z,81.89
2018-02-09T09:51:11.926Z,82.42
2018-02-09T09:53:39.676Z,82.37
2018-02-09T09:56:07.432Z,82.21
2018-02-09T09:58:35.146Z,82.52
2018-02-09T10:01:08.396Z,82.98
2018-02-09T10:03:36.097Z,81.95
2018-02-09T10:06:03.828Z,81.75
2018-02-09T10:08:31.525Z,81.89
2018-02-09T10:10:59.230Z,82.13
2018-02-09T10:13:27.115Z,81.18
2018-02-09T10:15:54.933Z,81.46
2018-02-09T10:18:22.613Z,80.85
2018-02-09T10:20:50.431Z,80.42
2018-02-09T10:23:18.123Z,79.98
2018-02-09T10:25:46.534Z,79.65
2018-02-09T10:28:14.257Z,78.90
2018-02-09T10:30:41.946Z,78.04
2018-02-09T10:33:09.705Z,77.91
2018-02-09T10:35:40.436Z,77.58
2018-02-09T10:38:08.340Z,77.04
2018-02-09T10:40:36.034Z,76.67
2018-02-09T10:43:05.649Z,76.17
2018-02-09T10:45:33.381Z,76.19
2018-02-09T10:48:01.184Z,76.20
2018-02-09T10:50:29.011Z,76.32
2018-02-09T10:52:56.778Z,76.40
2018-02-09T10:55:24.460Z,76.45
2018-02-09T10:57:52.130Z,76.08
2018-02-09T11:00:25.594Z,76.37
2018-02-09T11:02:53.286Z,75.87
2018-02-09T11:05:21.026Z,75.92
2018-02-09T11:07:48.916Z,75.79
2018-02-09T11:10:23.037Z,75.63
2018-02-09T11:12:50.995Z,74.57
2018-02-09T11:15:18.659Z,74.18
2018-02-09T11:17:48.455Z,72.85
2018-02-09T11:20:17.093Z,73.25
2018-02-09T11:22:44.850Z,73.42
2018-02-09T11:25:12.609Z,73.71
2018-02-09T11:27:40.307Z,73.27
2018-02-09T11:30:08.034Z,72.83
2018-02-09T11:32:36.813Z,72.01
2018-02-09T11:35:04.495Z,71.40
2018-02-09T11:37:32.439Z,72.15
2018-02-09T11:40:00.156Z,72.61
2018-02-09T11:42:28.604Z,72.59
2018-02-09T11:44:56.320Z,73.21
2018-02-09T11:47:26.457Z,72.08
2018-02-09T11:49:54.199Z,70.34
2018-02-09T11:52:21.903Z,68.34
2018-02-09T11:54:49.708Z,67.23
2018-02-09T11:57:17.429Z,68.26
2018-02-09T11:59:45.154Z,68.02
2018-02-09T12:02:12.842Z,67.09
2018-02-09T12:04:40.645Z,67.31
2018-02-09T12:07:08.386Z,66.57
2018-02-09T12:09:36.089Z,66.58
2018-02-09T12:12:03.754Z,66.93
2018-02-09T12:14:31.462Z,67.41
2018-02-09T12:16:59.130Z,66.58
2018-02-09T12:19:26.889Z,66.62
2018-02-09T12:21:54.570Z,67.30
2018-02-09T12:24:22.298Z,67.86
2018-02-09T12:26:51.123Z,68.45
2018-02-09T12:29:18.837Z,67.64
2018-02-09T12:31:46.517Z,67.20
2018-02-09T12:34:14.225Z,65.90
2018-02-09T12:36:41.899Z,65.65
2018-02-09T12:39:09.637Z,66.13
2018-02-09T12:41:37.307Z,65.20
2018-02-09T12:44:05.118Z,66.13
2018-02-09T12:46:32.895Z,65.58
2018-02-09T12:49:00.641Z,66.02
2018-02-09T12:51:28.397Z,65.03
2018-02-09T12:53:56.058Z,64.28
2018-02-09T12:56:23.779Z,64.27
2018-02-09T12:58:51.482Z,63.33
2018-02-09T13:01:19.192Z,62.10
2018-02-09T13:03:46.884Z,63.87
2018-02-09T13:06:14.557Z,63.72
2018-02-09T13:08:42.188Z,63.71
2018-02-09T13:11:09.785Z,65.20
2018-02-09T13:13:37.434Z,66.09
2018-02-09T13:16:05.030Z,65.61
2018-02-09T13:18:44.358Z,66.40
2018-02-09T13:21:12.186Z,65.65
2018-02-09T13:23:51.681Z,66.06
2018-02-09T13:26:19.381Z,66.40
2018-02-09T13:28:57.811Z,67.09
2018-02-09T13:31:25.503Z,65.59
2018-02-09T13:33:53.186Z,64.45
2018-02-09T13:36:32.317Z,64.11
2018-02-09T13:38:59.955Z,63.05
2018-02-09T13:41:27.650Z,64.40
2018-02-09T13:43:55.363Z,65.06
2018-02-09T13:46:23.092Z,64.65
2018-02-09T13:48:50.820Z,65.92
2018-02-09T13:51:18.507Z,66.41
2018-02-09T13:53:46.231Z,66.19
2018-02-09T13:56:13.897Z,66.40
2018-02-09T13:58:41.625Z,65.76
2018-02-09T14:01:10.722Z,65.53
2018-02-09T14:03:38.442Z,64.29
2018-02-09T14:06:06.126Z,62.75
2018-02-09T14:08:33.830Z,62.89
2018-02-09T14:11:01.555Z,63.50
2018-02-09T14:13:29.305Z,64.39
2018-02-09T14:15:56.991Z,64.66
2018-02-09T14:18:24.684Z,65.06
2018-02-09T14:20:52.373Z,65.09
2018-02-09T14:23:20.238Z,64.86
2018-02-09T14:25:47.917Z,65.34
2018-02-09T14:28:15.605Z,64.87
2018-02-09T14:30:43.838Z,64.96
2018-02-09T14:33:11.533Z,65.27
2018-02-09T14:35:39.228Z,66.03
2018-02-09T14:38:06.959Z,66.88
2018-02-09T14:40:34.685Z,67.41
2018-02-09T14:43:02.360Z,67.18
2018-02-09T14:45:30.170Z,67.85
2018-02-09T14:47:57.856Z,66.89
2018-02-09T14:50:25.567Z,66.21
2018-02-09T14:52:53.253Z,65.39
2018-02-09T14:55:20.953Z,66.55
2018-02-09T14:57:48.647Z,66.53
2018-02-09T15:00:16.391Z,66.27
2018-02-09T15:02:43.985Z,66.38
2018-02-09T15:05:11.606Z,67.17
2018-02-09T15:07:39.198Z,66.61
2018-02-09T15:10:06.899Z,66.91
2018-02-09T15:12:34.492Z,67.16
2018-02-09T15:15:02.118Z,67.25
2018-02-09T15:17:29.771Z,68.13
2018-02-09T15:19:57.409Z,68.86
2018-02-09T15:22:25.110Z,69.42
2018-02-09T15:24:52.826Z,70.26
2018-02-09T15:27:20.527Z,70.31
2018-02-09T15:29:48.241Z,70.44
2018-02-09T15:32:15.919Z,70.85
2018-02-09T15:34:43.642Z,71.57
2018-02-09T15:37:11.317Z,72.32
2018-02-09T15:39:39.034Z,72.44
2018-02-09T15:42:06.711Z,72.70
2018-02-09T15:44:34.419Z,72.55
2018-02-09T15:47:02.092Z,73.04
2018-02-09T15:49:29.801Z,73.18
2018-02-09T15:51:57.510Z,73.60
2018-02-09T15:54:25.232Z,73.84
2018-02-09T15:56:52.905Z,74.24
2018-02-09T15:59:20.752Z,74.02
2018-02-09T16:01:48.430Z,74.35
2018-02-09T16:04:16.174Z,74.17
2018-02-09T16:06:43.885Z,73.91
2018-02-09T16:09:11.603Z,74.49
2018-02-09T16:11:39.308Z,74.87
2018-02-09T16:14:07.009Z,75.22
2018-02-09T16:16:34.702Z,75.96
2018-02-09T16:19:02.447Z,76.49
2018-02-09T16:21:31.389Z,76.50
2018-02-09T16:23:59.136Z,76.68
2018-02-09T16:26:26.924Z,77.07
2018-02-09T16:28:54.696Z,77.44
2018-02-09T16:31:22.554Z,77.76
2018-02-09T16:33:50.327Z,77.86
2018-02-09T16:36:18.093Z,77.97
2018-02-09T16:38:45.831Z,78.15
2018-02-09T16:41:13.819Z,78.26
2018-02-09T16:43:41.542Z,78.58
2018-02-09T16:46:09.258Z,78.75
2018-02-09T16:48:36.969Z,78.93
2018-02-09T16:51:04.686Z,78.79
2018-02-09T16:53:32.403Z,78.84
2018-02-09T16:56:00.152Z,78.42
2018-02-09T16:58:28.246Z,78.22
2018-02-09T17:00:56.441Z,78.12
2018-02-09T17:03:24.209Z,78.13
2018-02-09T17:05:51.974Z,78.15
2018-02-09T17:08:19.845Z,78.39
2018-02-09T17:10:47.525Z,78.83
2018-02-09T17:13:15.248Z,79.15
2018-02-09T17:15:42.937Z,79.37
2018-02-09T17:18:10.646Z,79.41
2018-02-09T17:20:38.776Z,79.23
2018-02-09T17:23:06.511Z,79.81
2018-02-09T17:25:34.272Z,79.90
2018-02-09T17:30:35.350Z,80.07
2018-02-09T17:33:03.066Z,79.74
2018-02-09T17:35:30.837Z,79.60
2018-02-09T17:37:58.593Z,79.58
2018-02-09T17:40:26.299Z,79.96
2018-02-09T17:42:54.023Z,80.06
2018-02-09T17:45:21.690Z,79.96
2018-02-09T17:47:49.406Z,79.91
2018-02-09T17:50:17.199Z,79.60
2018-02-09T17:52:44.930Z,80.04
2018-02-09T17:55:12.620Z,79.99
2018-02-09T17:57:40.341Z,79.83
2018-02-09T18:00:08.046Z,79.72
2018-02-09T18:02:35.858Z,79.60
2018-02-09T18:05:03.691Z,79.68
2018-02-09T18:07:31.713Z,79.27
2018-02-09T18:09:59.390Z,79.69
2018-02-09T18:12:27.118Z,79.94
2018-02-09T18:14:54.915Z,80.06
2018-02-09T18:17:27.019Z,80.06
2018-02-09T18:19:54.715Z,80.18
2018-02-09T18:22:22.442Z,80.42
2018-02-09T18:24:50.202Z,80.24
2018-02-09T18:27:17.926Z,80.49
2018-02-09T18:29:45.622Z,80.67
2018-02-09T18:32:13.354Z,80.75
2018-02-09T18:34:41.219Z,80.87
2018-02-09T18:37:08.897Z,80.94
2018-02-09T18:39:36.612Z,80.90
2018-02-09T18:42:04.346Z,80.97
2018-02-09T18:44:32.035Z,81.03
2018-02-09T18:46:59.745Z,81.10
2018-02-09T18:49:27.482Z,80.78
2018-02-09T18:51:55.257Z,81.03
2018-02-09T18:54:23.009Z,81.21
2018-02-09T18:56:50.716Z,81.22
2018-02-09T18:59:18.476Z,81.41
2018-02-09T19:01:46.184Z,81.19
2018-02-09T19:04:13.869Z,81.47
2018-02-09T19:06:41.836Z,81.60
2018-02-09T19:09:10.650Z,81.41
2018-02-09T19:11:38.502Z,81.36
2018-02-09T19:14:06.221Z,81.77
2018-02-09T19:16:33.941Z,81.26
2018-02-09T19:19:01.917Z,80.96
2018-02-09T19:21:29.801Z,80.45
2018-02-09T19:23:57.708Z,80.60
2018-02-09T19:26:25.632Z,80.54
2018-02-09T19:28:53.341Z,80.84
2018-02-09T19:31:21.057Z,81.14
2018-02-09T19:33:48.786Z,81.16
2018-02-09T19:36:16.614Z,81.14
2018-02-09T19:38:44.309Z,80.79
2018-02-09T19:41:12.062Z,81.01
2018-02-09T19:43:39.748Z,81.16
2018-02-09T19:46:07.456Z,81.32
2018-02-09T19:48:35.138Z,81.25
2018-02-09T19:51:02.939Z,81.22
2018-02-09T19:53:30.633Z,81.29
2018-02-09T19:55:58.373Z,81.33
2018-02-09T19:58:26.071Z,81.20
2018-02-09T20:00:53.792Z,81.34
2018-02-09T20:03:21.539Z,81.37
2018-02-09T20:05:49.359Z,81.61
2018-02-09T20:08:17.036Z,81.49
2018-02-09T20:10:44.846Z,81.53
2018-02-09T20:13:12.571Z,81.67
2018-02-09T20:15:40.298Z,81.75
2018-02-09T20:18:07.982Z,81.71
2018-02-09T20:20:35.785Z,81.90
2018-02-09T20:23:03.458Z,82.05
2018-02-09T20:25:31.173Z,82.07
2018-02-09T20:27:58.856Z,82.23
2018-02-09T20:30:26.575Z,82.45
2018-02-09T20:32:54.272Z,82.66
2018-02-09T20:35:22.025Z,82.62
2018-02-09T20:37:49.714Z,82.77
2018-02-09T20:40:17.436Z,82.96
2018-02-09T20:42:45.113Z,83.04
2018-02-09T20:45:12.860Z,83.08
2018-02-09T20:47:40.566Z,82.81
2018-02-09T20:50:08.402Z,82.73
2018-02-09T20:52:36.089Z,82.59
2018-02-09T20:55:03.871Z,82.66
2018-02-09T20:57:31.678Z,82.70
2018-02-09T20:59:59.358Z,82.75
2018-02-09T21:02:27.206Z,82.80
2018-02-09T21:04:54.906Z,82.59
2018-02-09T21:07:22.671Z,82.61
2018-02-09T21:09:50.370Z,82.06
2018-02-09T21:12:18.229Z,81.92
2018-02-09T21:14:46.124Z,81.66
2018-02-09T21:17:13.865Z,81.72
2018-02-09T21:19:41.546Z,81.83
2018-02-09T21:22:09.263Z,82.03
2018-02-09T21:24:36.955Z,82.17
2018-02-09T21:27:04.674Z,82.42
2018-02-09T21:29:32.359Z,82.65
2018-02-09T21:32:00.091Z,82.67
2018-02-09T21:34:27.795Z,83.02
2018-02-09T21:36:55.612Z,82.92
2018-02-09T21:39:23.302Z,83.04
2018-02-09T21:41:51.030Z,83.00
2018-02-09T21:44:18.734Z,82.91
2018-02-09T21:46:46.475Z,83.11
2018-02-09T21:49:14.189Z,83.26
2018-02-09T21:51:42.057Z,83.23
2018-02-09T21:54:09.777Z,83.29
2018-02-09T21:56:37.516Z,83.46
2018-02-09T21:59:05.186Z,83.74
2018-02-09T22:01:32.908Z,83.74
2018-02-09T22:04:00.605Z,83.72
2018-02-09T22:06:28.357Z,83.71
2018-02-09T22:08:56.086Z,83.68
2018-02-09T22:11:23.807Z,83.86
2018-02-09T22:13:51.481Z,83.78
2018-02-09T22:16:19.220Z,83.93
2018-02-09T22:18:46.911Z,83.88
2018-02-09T22:21:14.656Z,83.99
2018-02-09T22:23:42.326Z,83.91
2018-02-09T22:26:10.030Z,83.90
2018-02-09T22:28:37.710Z,84.02
2018-02-09T22:31:05.426Z,84.19
2018-02-09T22:33:33.139Z,84.35
2018-02-09T22:36:00.854Z,84.34
2018-02-09T22:38:28.578Z,84.58
2018-02-09T22:40:56.418Z,84.66
2018-02-09T22:43:24.130Z,84.67
2018-02-09T22:45:51.913Z,84.80
2018-02-09T22:48:19.593Z,84.89
2018-02-09T22:50:47.304Z,84.88
2018-02-09T22:53:15.006Z,84.80
2018-02-09T22:55:42.717Z,84.89
2018-02-09T22:58:10.395Z,84.86
2018-02-09T23:00:38.098Z,84.80
2018-02-09T23:03:05.791Z,84.97
2018-02-09T23:05:33.706Z,85.14
2018-02-09T23:08:01.539Z,85.33
2018-02-09T23:10:29.243Z,85.22
2018-02-09T23:12:56.949Z,85.18
2018-02-09T23:15:24.637Z,85.05
2018-02-09T23:17:52.430Z,84.92
2018-02-09T23:20:20.114Z,84.87
2018-02-09T23:22:47.791Z,85.08
2018-02-09T23:25:15.595Z,85.17
2018-02-09T23:27:43.273Z,85.12
2018-02-09T23:30:11.042Z,85.00
2018-02-09T23:32:38.778Z,85.04
2018-02-09T23:35:06.616Z,85.26
2018-02-09T23:37:34.307Z,85.39
2018-02-09T23:40:02.007Z,85.24
2018-02-09T23:42:29.898Z,85.15
2018-02-09T23:44:57.622Z,85.23
2018-02-09T23:47:25.318Z,85.47
2018-02-09T23:49:53.155Z,85.45
2018-02-09T23:52:20.846Z,85.73
2018-02-09T23:54:48.669Z,85.69
2018-02-09T23:57:16.397Z,85.77
2018-02-09T23:59:44.153Z,85.70
